<?xml version="1.0" encoding="UTF-8" standalone="no" ?>
<gpx xmlns="http://www.topografix.com/GPX/1/1" xmlns:xsi="http://www.w3.org/2001/XMLSchema-instance" xsi:schemaLocation="http://www.topografix.com/GPX/1/1 http://www.topografix.com/GPX/1/1/gpx.xsd" version="1.1" creator="VisuGPX - https://www.visugpx.com">
  <metadata>
    <name>Tour de l'Île Kerner</name>
  </metadata>
  <wpt lat="47.7099" lon="-3.30955">
    <ele>4</ele>
    <name><![CDATA[Parking près de l'Église Sainte-Raguedonte]]></name>
  </wpt>
  <wpt lat="47.70622" lon="-3.31064">
    <ele>1</ele>
    <name><![CDATA[Carrefour de la boucle]]></name>
  </wpt>
  <wpt lat="47.70257" lon="-3.3154">
    <ele>3</ele>
    <name><![CDATA[Maison de l'île de Kerner]]></name>
  </wpt>
  <wpt lat="47.70151" lon="-3.30588">
    <ele>1.5</ele>
    <name><![CDATA[Pointe extrême de l'île]]></name>
  </wpt>
  <wpt lat="47.70699" lon="-3.30594">
    <ele>8</ele>
    <name><![CDATA[Chapelle de la Trinité]]></name>
  </wpt>
  <wpt lat="47.7099" lon="-3.30954">
    <ele>4</ele>
    <name><![CDATA[ Parking près de l'Église Sainte-Raguedonte]]></name>
  </wpt>
  <trk>
    <name><![CDATA[Tour de l'Île Kerner]]></name>
    <trkseg>
      <trkpt lat="47.7099" lon="-3.30955">
        <ele>4</ele>
        <time>2021-05-09T14:43:30+02:00</time>
      </trkpt>
      <trkpt lat="47.7096" lon="-3.30957">
        <ele>3</ele>
        <time>2021-05-09T14:43:35+02:00</time>
      </trkpt>
      <trkpt lat="47.70916" lon="-3.30915">
        <ele>2</ele>
        <time>2021-05-09T14:43:40+02:00</time>
      </trkpt>
      <trkpt lat="47.70874" lon="-3.30875">
        <ele>2</ele>
        <time>2021-05-09T14:43:45+02:00</time>
      </trkpt>
      <trkpt lat="47.7086" lon="-3.30914">
        <ele>3</ele>
        <time>2021-05-09T14:43:50+02:00</time>
      </trkpt>
      <trkpt lat="47.7084" lon="-3.30969">
        <ele>3</ele>
        <time>2021-05-09T14:43:55+02:00</time>
      </trkpt>
      <trkpt lat="47.70822" lon="-3.31013">
        <ele>3</ele>
        <time>2021-05-09T14:44:00+02:00</time>
      </trkpt>
      <trkpt lat="47.70791" lon="-3.31066">
        <ele>1</ele>
        <time>2021-05-09T14:44:05+02:00</time>
      </trkpt>
      <trkpt lat="47.7077" lon="-3.31075">
        <ele>3</ele>
        <time>2021-05-09T14:44:10+02:00</time>
      </trkpt>
      <trkpt lat="47.70722" lon="-3.31089">
        <ele>2.6</ele>
        <time>2021-05-09T14:44:15+02:00</time>
      </trkpt>
      <trkpt lat="47.7067" lon="-3.31081">
        <ele>3</ele>
        <time>2021-05-09T14:44:20+02:00</time>
      </trkpt>
      <trkpt lat="47.70622" lon="-3.31064">
        <ele>1</ele>
        <time>2021-05-09T14:44:25+02:00</time>
      </trkpt>
      <trkpt lat="47.70595" lon="-3.31079">
        <ele>1</ele>
        <time>2021-05-09T14:44:30+02:00</time>
      </trkpt>
      <trkpt lat="47.70584" lon="-3.31143">
        <ele>2</ele>
        <time>2021-05-09T14:44:35+02:00</time>
      </trkpt>
      <trkpt lat="47.70567" lon="-3.31236">
        <ele>1.6</ele>
        <time>2021-05-09T14:44:40+02:00</time>
      </trkpt>
      <trkpt lat="47.70557" lon="-3.31252">
        <ele>1</ele>
        <time>2021-05-09T14:44:45+02:00</time>
      </trkpt>
      <trkpt lat="47.70536" lon="-3.31269">
        <ele>1</ele>
        <time>2021-05-09T14:44:50+02:00</time>
      </trkpt>
      <trkpt lat="47.70456" lon="-3.31268">
        <ele>2</ele>
        <time>2021-05-09T14:44:55+02:00</time>
      </trkpt>
      <trkpt lat="47.70402" lon="-3.31265">
        <ele>2</ele>
        <time>2021-05-09T14:45:00+02:00</time>
      </trkpt>
      <trkpt lat="47.70363" lon="-3.31264">
        <ele>2</ele>
        <time>2021-05-09T14:45:05+02:00</time>
      </trkpt>
      <trkpt lat="47.70299" lon="-3.31257">
        <ele>2</ele>
        <time>2021-05-09T14:45:10+02:00</time>
      </trkpt>
      <trkpt lat="47.70284" lon="-3.31261">
        <ele>1</ele>
        <time>2021-05-09T14:45:15+02:00</time>
      </trkpt>
      <trkpt lat="47.70282" lon="-3.31284">
        <ele>1</ele>
        <time>2021-05-09T14:45:20+02:00</time>
      </trkpt>
      <trkpt lat="47.70277" lon="-3.31317">
        <ele>2</ele>
        <time>2021-05-09T14:45:25+02:00</time>
      </trkpt>
      <trkpt lat="47.70274" lon="-3.31348">
        <ele>2</ele>
        <time>2021-05-09T14:45:30+02:00</time>
      </trkpt>
      <trkpt lat="47.70271" lon="-3.31367">
        <ele>2</ele>
        <time>2021-05-09T14:45:35+02:00</time>
      </trkpt>
      <trkpt lat="47.70276" lon="-3.31386">
        <ele>3</ele>
        <time>2021-05-09T14:45:40+02:00</time>
      </trkpt>
      <trkpt lat="47.70267" lon="-3.31439">
        <ele>3</ele>
        <time>2021-05-09T14:45:45+02:00</time>
      </trkpt>
      <trkpt lat="47.70265" lon="-3.31488">
        <ele>3</ele>
        <time>2021-05-09T14:45:50+02:00</time>
      </trkpt>
      <trkpt lat="47.70257" lon="-3.3154">
        <ele>3</ele>
        <time>2021-05-09T14:45:55+02:00</time>
      </trkpt>
      <trkpt lat="47.70243" lon="-3.31522">
        <ele>3</ele>
        <time>2021-05-09T14:46:00+02:00</time>
      </trkpt>
      <trkpt lat="47.70234" lon="-3.31498">
        <ele>2</ele>
        <time>2021-05-09T14:46:05+02:00</time>
      </trkpt>
      <trkpt lat="47.70222" lon="-3.3145">
        <ele>2</ele>
        <time>2021-05-09T14:46:10+02:00</time>
      </trkpt>
      <trkpt lat="47.70224" lon="-3.31424">
        <ele>3</ele>
        <time>2021-05-09T14:46:15+02:00</time>
      </trkpt>
      <trkpt lat="47.70225" lon="-3.31379">
        <ele>2</ele>
        <time>2021-05-09T14:46:20+02:00</time>
      </trkpt>
      <trkpt lat="47.70229" lon="-3.31339">
        <ele>2</ele>
        <time>2021-05-09T14:46:25+02:00</time>
      </trkpt>
      <trkpt lat="47.70234" lon="-3.31312">
        <ele>1</ele>
        <time>2021-05-09T14:46:30+02:00</time>
      </trkpt>
      <trkpt lat="47.70236" lon="-3.3129">
        <ele>1</ele>
        <time>2021-05-09T14:46:35+02:00</time>
      </trkpt>
      <trkpt lat="47.70237" lon="-3.31267">
        <ele>1</ele>
        <time>2021-05-09T14:46:40+02:00</time>
      </trkpt>
      <trkpt lat="47.7022" lon="-3.31212">
        <ele>2.3</ele>
        <time>2021-05-09T14:46:45+02:00</time>
      </trkpt>
      <trkpt lat="47.70204" lon="-3.31172">
        <ele>2.3</ele>
        <time>2021-05-09T14:46:50+02:00</time>
      </trkpt>
      <trkpt lat="47.70177" lon="-3.31091">
        <ele>2.4</ele>
        <time>2021-05-09T14:46:55+02:00</time>
      </trkpt>
      <trkpt lat="47.70173" lon="-3.31065">
        <ele>2.2</ele>
        <time>2021-05-09T14:47:00+02:00</time>
      </trkpt>
      <trkpt lat="47.70168" lon="-3.31031">
        <ele>-1</ele>
        <time>2021-05-09T14:47:05+02:00</time>
      </trkpt>
      <trkpt lat="47.70167" lon="-3.30993">
        <ele>-1</ele>
        <time>2021-05-09T14:47:10+02:00</time>
      </trkpt>
      <trkpt lat="47.70165" lon="-3.30983">
        <ele>-1</ele>
        <time>2021-05-09T14:47:15+02:00</time>
      </trkpt>
      <trkpt lat="47.70161" lon="-3.30961">
        <ele>2.7</ele>
        <time>2021-05-09T14:47:20+02:00</time>
      </trkpt>
      <trkpt lat="47.70149" lon="-3.30906">
        <ele>3</ele>
        <time>2021-05-09T14:47:25+02:00</time>
      </trkpt>
      <trkpt lat="47.70134" lon="-3.30869">
        <ele>2.8</ele>
        <time>2021-05-09T14:47:30+02:00</time>
      </trkpt>
      <trkpt lat="47.70122" lon="-3.3082">
        <ele>1</ele>
        <time>2021-05-09T14:47:35+02:00</time>
      </trkpt>
      <trkpt lat="47.70087" lon="-3.30743">
        <ele>2</ele>
        <time>2021-05-09T14:47:40+02:00</time>
      </trkpt>
      <trkpt lat="47.7008" lon="-3.30715">
        <ele>2</ele>
        <time>2021-05-09T14:47:45+02:00</time>
      </trkpt>
      <trkpt lat="47.70074" lon="-3.30673">
        <ele>2</ele>
        <time>2021-05-09T14:47:50+02:00</time>
      </trkpt>
      <trkpt lat="47.70075" lon="-3.30636">
        <ele>1</ele>
        <time>2021-05-09T14:47:55+02:00</time>
      </trkpt>
      <trkpt lat="47.70074" lon="-3.30591">
        <ele>2.5</ele>
        <time>2021-05-09T14:48:00+02:00</time>
      </trkpt>
      <trkpt lat="47.70081" lon="-3.30572">
        <ele>2.5</ele>
        <time>2021-05-09T14:48:05+02:00</time>
      </trkpt>
      <trkpt lat="47.70099" lon="-3.30565">
        <ele>2.1</ele>
        <time>2021-05-09T14:48:10+02:00</time>
      </trkpt>
      <trkpt lat="47.70115" lon="-3.30573">
        <ele>1.9</ele>
        <time>2021-05-09T14:48:15+02:00</time>
      </trkpt>
      <trkpt lat="47.70133" lon="-3.30583">
        <ele>2</ele>
        <time>2021-05-09T14:48:20+02:00</time>
      </trkpt>
      <trkpt lat="47.70151" lon="-3.30588">
        <ele>1.5</ele>
        <time>2021-05-09T14:48:25+02:00</time>
      </trkpt>
      <trkpt lat="47.70133" lon="-3.30583">
        <ele>2</ele>
        <time>2021-05-09T14:48:30+02:00</time>
      </trkpt>
      <trkpt lat="47.70114" lon="-3.30572">
        <ele>2</ele>
        <time>2021-05-09T14:48:35+02:00</time>
      </trkpt>
      <trkpt lat="47.70099" lon="-3.30566">
        <ele>2.2</ele>
        <time>2021-05-09T14:48:40+02:00</time>
      </trkpt>
      <trkpt lat="47.70081" lon="-3.30571">
        <ele>2.5</ele>
        <time>2021-05-09T14:48:45+02:00</time>
      </trkpt>
      <trkpt lat="47.70075" lon="-3.30589">
        <ele>2.5</ele>
        <time>2021-05-09T14:48:50+02:00</time>
      </trkpt>
      <trkpt lat="47.70073" lon="-3.30673">
        <ele>2</ele>
        <time>2021-05-09T14:48:55+02:00</time>
      </trkpt>
      <trkpt lat="47.70081" lon="-3.30713">
        <ele>2</ele>
        <time>2021-05-09T14:49:00+02:00</time>
      </trkpt>
      <trkpt lat="47.70098" lon="-3.30711">
        <ele>2</ele>
        <time>2021-05-09T14:49:05+02:00</time>
      </trkpt>
      <trkpt lat="47.70108" lon="-3.307">
        <ele>2</ele>
        <time>2021-05-09T14:49:10+02:00</time>
      </trkpt>
      <trkpt lat="47.70129" lon="-3.30703">
        <ele>2</ele>
        <time>2021-05-09T14:49:15+02:00</time>
      </trkpt>
      <trkpt lat="47.70146" lon="-3.30722">
        <ele>2</ele>
        <time>2021-05-09T14:49:20+02:00</time>
      </trkpt>
      <trkpt lat="47.70154" lon="-3.30749">
        <ele>2</ele>
        <time>2021-05-09T14:49:25+02:00</time>
      </trkpt>
      <trkpt lat="47.70168" lon="-3.30777">
        <ele>2</ele>
        <time>2021-05-09T14:49:30+02:00</time>
      </trkpt>
      <trkpt lat="47.70197" lon="-3.30787">
        <ele>2</ele>
        <time>2021-05-09T14:49:35+02:00</time>
      </trkpt>
      <trkpt lat="47.70217" lon="-3.30776">
        <ele>2</ele>
        <time>2021-05-09T14:49:40+02:00</time>
      </trkpt>
      <trkpt lat="47.70243" lon="-3.30772">
        <ele>1</ele>
        <time>2021-05-09T14:49:45+02:00</time>
      </trkpt>
      <trkpt lat="47.70257" lon="-3.3079">
        <ele>2</ele>
        <time>2021-05-09T14:49:50+02:00</time>
      </trkpt>
      <trkpt lat="47.7027" lon="-3.30828">
        <ele>3</ele>
        <time>2021-05-09T14:49:55+02:00</time>
      </trkpt>
      <trkpt lat="47.70291" lon="-3.30857">
        <ele>2</ele>
        <time>2021-05-09T14:50:00+02:00</time>
      </trkpt>
      <trkpt lat="47.70315" lon="-3.30911">
        <ele>1</ele>
        <time>2021-05-09T14:50:05+02:00</time>
      </trkpt>
      <trkpt lat="47.70324" lon="-3.30937">
        <ele>1</ele>
        <time>2021-05-09T14:50:10+02:00</time>
      </trkpt>
      <trkpt lat="47.70349" lon="-3.30982">
        <ele>2.6</ele>
        <time>2021-05-09T14:50:15+02:00</time>
      </trkpt>
      <trkpt lat="47.7037" lon="-3.31044">
        <ele>2.7</ele>
        <time>2021-05-09T14:50:20+02:00</time>
      </trkpt>
      <trkpt lat="47.70369" lon="-3.31062">
        <ele>2.8</ele>
        <time>2021-05-09T14:50:25+02:00</time>
      </trkpt>
      <trkpt lat="47.70316" lon="-3.31089">
        <ele>3</ele>
        <time>2021-05-09T14:50:30+02:00</time>
      </trkpt>
      <trkpt lat="47.7031" lon="-3.31095">
        <ele>3</ele>
        <time>2021-05-09T14:50:35+02:00</time>
      </trkpt>
      <trkpt lat="47.70349" lon="-3.31178">
        <ele>1</ele>
        <time>2021-05-09T14:50:40+02:00</time>
      </trkpt>
      <trkpt lat="47.70384" lon="-3.31267">
        <ele>2</ele>
        <time>2021-05-09T14:50:45+02:00</time>
      </trkpt>
      <trkpt lat="47.70384" lon="-3.31265">
        <ele>2</ele>
        <time>2021-05-09T14:50:50+02:00</time>
      </trkpt>
      <trkpt lat="47.70475" lon="-3.31268">
        <ele>2</ele>
        <time>2021-05-09T14:50:55+02:00</time>
      </trkpt>
      <trkpt lat="47.70535" lon="-3.3127">
        <ele>1</ele>
        <time>2021-05-09T14:51:00+02:00</time>
      </trkpt>
      <trkpt lat="47.70556" lon="-3.31253">
        <ele>1</ele>
        <time>2021-05-09T14:51:05+02:00</time>
      </trkpt>
      <trkpt lat="47.70566" lon="-3.31237">
        <ele>1.6</ele>
        <time>2021-05-09T14:51:10+02:00</time>
      </trkpt>
      <trkpt lat="47.70575" lon="-3.31189">
        <ele>1.1</ele>
        <time>2021-05-09T14:51:15+02:00</time>
      </trkpt>
      <trkpt lat="47.70596" lon="-3.31079">
        <ele>1</ele>
        <time>2021-05-09T14:51:20+02:00</time>
      </trkpt>
      <trkpt lat="47.70623" lon="-3.31063">
        <ele>1</ele>
        <time>2021-05-09T14:51:25+02:00</time>
      </trkpt>
      <trkpt lat="47.70605" lon="-3.31039">
        <ele>2</ele>
        <time>2021-05-09T14:51:30+02:00</time>
      </trkpt>
      <trkpt lat="47.70586" lon="-3.31025">
        <ele>2</ele>
        <time>2021-05-09T14:51:35+02:00</time>
      </trkpt>
      <trkpt lat="47.7054" lon="-3.3099">
        <ele>1</ele>
        <time>2021-05-09T14:51:40+02:00</time>
      </trkpt>
      <trkpt lat="47.70532" lon="-3.30941">
        <ele>1</ele>
        <time>2021-05-09T14:51:45+02:00</time>
      </trkpt>
      <trkpt lat="47.70539" lon="-3.30886">
        <ele>1</ele>
        <time>2021-05-09T14:51:50+02:00</time>
      </trkpt>
      <trkpt lat="47.70569" lon="-3.30817">
        <ele>3</ele>
        <time>2021-05-09T14:51:55+02:00</time>
      </trkpt>
      <trkpt lat="47.70597" lon="-3.30754">
        <ele>4</ele>
        <time>2021-05-09T14:52:00+02:00</time>
      </trkpt>
      <trkpt lat="47.70598" lon="-3.30715">
        <ele>5</ele>
        <time>2021-05-09T14:52:05+02:00</time>
      </trkpt>
      <trkpt lat="47.70593" lon="-3.30689">
        <ele>6</ele>
        <time>2021-05-09T14:52:10+02:00</time>
      </trkpt>
      <trkpt lat="47.706" lon="-3.30657">
        <ele>6</ele>
        <time>2021-05-09T14:52:15+02:00</time>
      </trkpt>
      <trkpt lat="47.70638" lon="-3.30626">
        <ele>7</ele>
        <time>2021-05-09T14:52:20+02:00</time>
      </trkpt>
      <trkpt lat="47.70674" lon="-3.30605">
        <ele>8</ele>
        <time>2021-05-09T14:52:25+02:00</time>
      </trkpt>
      <trkpt lat="47.70699" lon="-3.30594">
        <ele>8</ele>
        <time>2021-05-09T14:52:30+02:00</time>
      </trkpt>
      <trkpt lat="47.7069" lon="-3.30548">
        <ele>8</ele>
        <time>2021-05-09T14:52:35+02:00</time>
      </trkpt>
      <trkpt lat="47.70706" lon="-3.30544">
        <ele>8</ele>
        <time>2021-05-09T14:52:40+02:00</time>
      </trkpt>
      <trkpt lat="47.70751" lon="-3.30646">
        <ele>7</ele>
        <time>2021-05-09T14:52:45+02:00</time>
      </trkpt>
      <trkpt lat="47.70784" lon="-3.30728">
        <ele>5</ele>
        <time>2021-05-09T14:52:50+02:00</time>
      </trkpt>
      <trkpt lat="47.70811" lon="-3.30796">
        <ele>3</ele>
        <time>2021-05-09T14:52:55+02:00</time>
      </trkpt>
      <trkpt lat="47.70837" lon="-3.30845">
        <ele>2</ele>
        <time>2021-05-09T14:53:00+02:00</time>
      </trkpt>
      <trkpt lat="47.70875" lon="-3.30876">
        <ele>2</ele>
        <time>2021-05-09T14:53:05+02:00</time>
      </trkpt>
      <trkpt lat="47.70917" lon="-3.30917">
        <ele>2</ele>
        <time>2021-05-09T14:53:10+02:00</time>
      </trkpt>
      <trkpt lat="47.70948" lon="-3.30943">
        <ele>2</ele>
        <time>2021-05-09T14:53:15+02:00</time>
      </trkpt>
      <trkpt lat="47.70961" lon="-3.30956">
        <ele>3</ele>
        <time>2021-05-09T14:53:20+02:00</time>
      </trkpt>
      <trkpt lat="47.70989" lon="-3.30955">
        <ele>4</ele>
        <time>2021-05-09T14:53:25+02:00</time>
      </trkpt>
      <trkpt lat="47.7099" lon="-3.30954">
        <ele>4</ele>
        <time>2021-05-09T14:53:30+02:00</time>
      </trkpt>
    </trkseg>
  </trk>
</gpx>